Terminal Aerodrome Forecast
Issued by NWS

Home | Current Version | Previous Version | Text Only | Print | Product List | Glossary On
Versions: 1 2 3 4 5 6 7 8 9 10 11 12 13 14
000
FTUS44 KSJT 191232 AAA
TAFSOA
TAF AMD
KSOA 191232Z 1913/2012 18003KT P6SM SCT009
      TEMPO 1913/1915 BKN009
     FM191600 17012KT P6SM SCT040
     FM200000 16006KT P6SM SCT050 BKN250
     FM200700 17009KT P6SM BKN012=

USA.gov is the U.S. government's official web portal to all federal, state and local government web resources and services.